Waubaushene, Canada
Current Conditions -  °F | °C
As of 10:00 AM on Wednesday 26 Nov 2014 (Local Time) from CYQA Reporting Station
Overcast Overcast  
Wind Chill: 28°   Ceiling: 3400
Heat Index: 28°   Visibility: 9mi
Dew Point: 21°   Wind: 2mph
Humidity: 74%   Direction: NA
Pressure: 30.2"   Gusts: NA
Location:  44.75°N, 79.7°W
Report Text: CYQA 261500Z AUTO VRB02KT 9SM OVC034 M02/M06 A3020 RMK PRESFR SLP242
Loading
Personal Weather Stations






























Interactive Weather Map New forecast layout! Learn more

10-Day Weather Forecast

Advertisements
Track Severe Weather on mobile